sensor_id;sensor_type;location;lat;lon;timestamp;P1;durP1;ratioP1;P2;durP2;ratioP2
84709;SDS011;75589;42.648;23.274;2024-02-26T00:02:13;6.97;;;3.10;;
84709;SDS011;75589;42.648;23.274;2024-02-26T00:04:40;6.63;;;2.67;;
84709;SDS011;75589;42.648;23.274;2024-02-26T00:07:05;4.45;;;2.38;;
84709;SDS011;75589;42.648;23.274;2024-02-26T00:09:32;4.13;;;2.95;;
84709;SDS011;75589;42.648;23.274;2024-02-26T00:12:00;4.72;;;3.38;;
84709;SDS011;75589;42.648;23.274;2024-02-26T00:14:26;6.22;;;3.75;;
84709;SDS011;75589;42.648;23.274;2024-02-26T00:16:52;5.03;;;3.17;;
84709;SDS011;75589;42.648;23.274;2024-02-26T00:19:17;7.22;;;4.28;;
84709;SDS011;75589;42.648;23.274;2024-02-26T00:21:43;8.43;;;4.28;;
84709;SDS011;75589;42.648;23.274;2024-02-26T00:24:08;8.20;;;5.05;;
84709;SDS011;75589;42.648;23.274;2024-02-26T00:26:34;8.23;;;4.13;;
84709;SDS011;75589;42.648;23.274;2024-02-26T00:28:59;9.32;;;4.93;;
84709;SDS011;75589;42.648;23.274;2024-02-26T00:31:24;9.50;;;5.47;;
84709;SDS011;75589;42.648;23.274;2024-02-26T00:33:50;7.50;;;5.32;;
84709;SDS011;75589;42.648;23.274;2024-02-26T00:36:15;13.77;;;5.28;;
84709;SDS011;75589;42.648;23.274;2024-02-26T00:38:41;10.70;;;5.20;;
84709;SDS011;75589;42.648;23.274;2024-02-26T00:41:08;12.25;;;5.90;;
84709;SDS011;75589;42.648;23.274;2024-02-26T00:43:33;8.30;;;4.93;;
84709;SDS011;75589;42.648;23.274;2024-02-26T00:45:59;9.55;;;5.30;;
84709;SDS011;75589;42.648;23.274;2024-02-26T00:48:24;8.85;;;5.05;;
84709;SDS011;75589;42.648;23.274;2024-02-26T00:50:51;8.43;;;5.00;;
84709;SDS011;75589;42.648;23.274;2024-02-26T00:53:16;8.93;;;5.82;;
84709;SDS011;75589;42.648;23.274;2024-02-26T00:55:42;7.95;;;5.43;;
84709;SDS011;75589;42.648;23.274;2024-02-26T00:58:08;8.35;;;4.95;;
84709;SDS011;75589;42.648;23.274;2024-02-26T01:00:34;8.18;;;3.58;;
84709;SDS011;75589;42.648;23.274;2024-02-26T01:02:59;8.75;;;4.25;;
84709;SDS011;75589;42.648;23.274;2024-02-26T01:05:25;7.38;;;4.30;;
84709;SDS011;75589;42.648;23.274;2024-02-26T01:07:50;3.63;;;2.35;;
84709;SDS011;75589;42.648;23.274;2024-02-26T01:10:16;6.97;;;3.92;;
84709;SDS011;75589;42.648;23.274;2024-02-26T01:12:41;5.57;;;2.65;;
84709;SDS011;75589;42.648;23.274;2024-02-26T01:15:07;32.63;;;11.15;;
84709;SDS011;75589;42.648;23.274;2024-02-26T01:17:33;10.48;;;5.18;;
84709;SDS011;75589;42.648;23.274;2024-02-26T01:19:58;6.43;;;4.03;;
84709;SDS011;75589;42.648;23.274;2024-02-26T01:22:24;5.75;;;3.85;;
84709;SDS011;75589;42.648;23.274;2024-02-26T01:24:49;9.18;;;4.43;;
84709;SDS011;75589;42.648;23.274;2024-02-26T01:27:15;8.45;;;4.63;;
84709;SDS011;75589;42.648;23.274;2024-02-26T01:29:41;7.32;;;3.55;;
84709;SDS011;75589;42.648;23.274;2024-02-26T01:32:06;10.07;;;4.95;;
84709;SDS011;75589;42.648;23.274;2024-02-26T01:34:32;7.40;;;4.22;;
84709;SDS011;75589;42.648;23.274;2024-02-26T01:36:58;7.85;;;3.88;;
84709;SDS011;75589;42.648;23.274;2024-02-26T01:39:23;7.60;;;4.03;;
84709;SDS011;75589;42.648;23.274;2024-02-26T01:41:49;9.73;;;6.18;;
84709;SDS011;75589;42.648;23.274;2024-02-26T01:44:14;8.30;;;4.85;;
84709;SDS011;75589;42.648;23.274;2024-02-26T01:46:40;9.18;;;4.30;;
84709;SDS011;75589;42.648;23.274;2024-02-26T01:49:06;16.80;;;7.10;;
84709;SDS011;75589;42.648;23.274;2024-02-26T01:51:33;9.48;;;5.97;;
84709;SDS011;75589;42.648;23.274;2024-02-26T01:54:00;11.82;;;7.38;;
84709;SDS011;75589;42.648;23.274;2024-02-26T01:56:28;13.90;;;5.75;;
84709;SDS011;75589;42.648;23.274;2024-02-26T01:58:57;11.93;;;6.57;;
84709;SDS011;75589;42.648;23.274;2024-02-26T02:01:27;12.82;;;7.40;;
84709;SDS011;75589;42.648;23.274;2024-02-26T02:03:55;10.93;;;6.45;;
84709;SDS011;75589;42.648;23.274;2024-02-26T02:06:22;11.75;;;7.05;;
84709;SDS011;75589;42.648;23.274;2024-02-26T02:08:48;11.63;;;6.65;;
84709;SDS011;75589;42.648;23.274;2024-02-26T02:11:14;16.20;;;7.00;;
84709;SDS011;75589;42.648;23.274;2024-02-26T02:13:40;20.98;;;8.75;;
84709;SDS011;75589;42.648;23.274;2024-02-26T02:16:06;15.05;;;7.30;;
84709;SDS011;75589;42.648;23.274;2024-02-26T02:18:32;18.20;;;7.50;;
84709;SDS011;75589;42.648;23.274;2024-02-26T02:21:02;16.45;;;8.20;;
84709;SDS011;75589;42.648;23.274;2024-02-26T02:23:27;19.63;;;9.55;;
84709;SDS011;75589;42.648;23.274;2024-02-26T02:25:53;13.23;;;6.40;;
84709;SDS011;75589;42.648;23.274;2024-02-26T02:28:20;9.60;;;4.75;;
84709;SDS011;75589;42.648;23.274;2024-02-26T02:30:46;8.40;;;4.38;;
84709;SDS011;75589;42.648;23.274;2024-02-26T02:33:12;6.20;;;3.83;;
84709;SDS011;75589;42.648;23.274;2024-02-26T02:35:39;6.10;;;4.32;;
84709;SDS011;75589;42.648;23.274;2024-02-26T02:38:05;7.15;;;4.53;;
84709;SDS011;75589;42.648;23.274;2024-02-26T02:40:30;8.90;;;5.13;;
84709;SDS011;75589;42.648;23.274;2024-02-26T02:42:55;8.90;;;4.72;;
84709;SDS011;75589;42.648;23.274;2024-02-26T02:45:21;10.15;;;5.07;;
84709;SDS011;75589;42.648;23.274;2024-02-26T02:47:47;7.65;;;4.75;;
84709;SDS011;75589;42.648;23.274;2024-02-26T02:50:12;11.20;;;5.13;;
84709;SDS011;75589;42.648;23.274;2024-02-26T02:52:37;9.10;;;5.25;;
84709;SDS011;75589;42.648;23.274;2024-02-26T02:55:03;7.43;;;5.07;;
84709;SDS011;75589;42.648;23.274;2024-02-26T02:57:29;8.18;;;4.75;;
84709;SDS011;75589;42.648;23.274;2024-02-26T02:59:56;7.68;;;5.15;;
84709;SDS011;75589;42.648;23.274;2024-02-26T03:02:21;11.23;;;4.68;;
84709;SDS011;75589;42.648;23.274;2024-02-26T03:07:13;8.13;;;4.20;;
84709;SDS011;75589;42.648;23.274;2024-02-26T03:09:38;9.32;;;3.88;;
84709;SDS011;75589;42.648;23.274;2024-02-26T03:12:03;5.72;;;4.40;;
84709;SDS011;75589;42.648;23.274;2024-02-26T03:14:29;9.35;;;4.90;;
84709;SDS011;75589;42.648;23.274;2024-02-26T03:16:55;8.50;;;4.60;;
84709;SDS011;75589;42.648;23.274;2024-02-26T03:19:20;7.55;;;5.25;;
84709;SDS011;75589;42.648;23.274;2024-02-26T03:21:46;6.78;;;4.75;;
84709;SDS011;75589;42.648;23.274;2024-02-26T03:24:11;8.30;;;4.90;;
84709;SDS011;75589;42.648;23.274;2024-02-26T03:26:37;10.48;;;6.50;;
84709;SDS011;75589;42.648;23.274;2024-02-26T03:29:03;12.63;;;6.70;;
84709;SDS011;75589;42.648;23.274;2024-02-26T03:31:29;13.40;;;6.43;;
84709;SDS011;75589;42.648;23.274;2024-02-26T03:33:54;10.68;;;5.47;;
84709;SDS011;75589;42.648;23.274;2024-02-26T03:36:20;8.15;;;4.35;;
84709;SDS011;75589;42.648;23.274;2024-02-26T03:38:46;5.45;;;3.50;;
84709;SDS011;75589;42.648;23.274;2024-02-26T03:41:13;4.10;;;3.03;;
84709;SDS011;75589;42.648;23.274;2024-02-26T03:43:39;7.22;;;4.15;;
84709;SDS011;75589;42.648;23.274;2024-02-26T03:46:07;6.47;;;4.05;;
84709;SDS011;75589;42.648;23.274;2024-02-26T03:48:33;8.43;;;4.90;;
84709;SDS011;75589;42.648;23.274;2024-02-26T03:50:59;10.77;;;5.22;;
84709;SDS011;75589;42.648;23.274;2024-02-26T03:53:25;10.80;;;6.28;;
84709;SDS011;75589;42.648;23.274;2024-02-26T03:55:50;10.80;;;5.32;;
84709;SDS011;75589;42.648;23.274;2024-02-26T03:58:17;9.48;;;5.30;;
84709;SDS011;75589;42.648;23.274;2024-02-26T04:00:43;9.00;;;5.85;;
84709;SDS011;75589;42.648;23.274;2024-02-26T04:03:09;9.18;;;5.50;;
84709;SDS011;75589;42.648;23.274;2024-02-26T04:05:34;9.52;;;5.70;;
84709;SDS011;75589;42.648;23.274;2024-02-26T04:08:00;9.38;;;5.95;;
84709;SDS011;75589;42.648;23.274;2024-02-26T04:10:25;12.10;;;6.70;;
84709;SDS011;75589;42.648;23.274;2024-02-26T04:12:51;11.88;;;6.45;;
84709;SDS011;75589;42.648;23.274;2024-02-26T04:15:16;8.20;;;5.25;;
84709;SDS011;75589;42.648;23.274;2024-02-26T04:17:42;7.10;;;4.07;;
84709;SDS011;75589;42.648;23.274;2024-02-26T04:20:12;9.60;;;7.18;;
84709;SDS011;75589;42.648;23.274;2024-02-26T04:22:39;15.38;;;8.60;;
84709;SDS011;75589;42.648;23.274;2024-02-26T04:25:05;11.60;;;6.88;;
84709;SDS011;75589;42.648;23.274;2024-02-26T04:27:30;8.70;;;5.78;;
84709;SDS011;75589;42.648;23.274;2024-02-26T04:29:56;8.80;;;5.07;;
84709;SDS011;75589;42.648;23.274;2024-02-26T04:32:21;9.23;;;5.85;;
84709;SDS011;75589;42.648;23.274;2024-02-26T04:34:47;9.88;;;5.78;;
84709;SDS011;75589;42.648;23.274;2024-02-26T04:37:13;10.70;;;6.05;;
84709;SDS011;75589;42.648;23.274;2024-02-26T04:39:38;15.15;;;6.35;;
84709;SDS011;75589;42.648;23.274;2024-02-26T04:42:05;9.55;;;5.10;;
84709;SDS011;75589;42.648;23.274;2024-02-26T04:44:31;11.18;;;6.50;;
84709;SDS011;75589;42.648;23.274;2024-02-26T04:46:56;13.27;;;7.00;;
84709;SDS011;75589;42.648;23.274;2024-02-26T04:49:21;8.80;;;6.20;;
84709;SDS011;75589;42.648;23.274;2024-02-26T04:51:47;11.30;;;7.00;;
84709;SDS011;75589;42.648;23.274;2024-02-26T04:54:13;12.23;;;7.93;;
84709;SDS011;75589;42.648;23.274;2024-02-26T04:56:38;15.52;;;9.32;;
84709;SDS011;75589;42.648;23.274;2024-02-26T04:59:04;9.80;;;6.07;;
84709;SDS011;75589;42.648;23.274;2024-02-26T05:01:29;12.57;;;7.10;;
84709;SDS011;75589;42.648;23.274;2024-02-26T05:03:55;14.77;;;9.02;;
84709;SDS011;75589;42.648;23.274;2024-02-26T05:06:20;18.35;;;9.27;;
84709;SDS011;75589;42.648;23.274;2024-02-26T05:08:46;20.00;;;9.40;;
84709;SDS011;75589;42.648;23.274;2024-02-26T05:11:11;19.95;;;10.27;;
84709;SDS011;75589;42.648;23.274;2024-02-26T05:13:37;27.55;;;12.73;;
84709;SDS011;75589;42.648;23.274;2024-02-26T05:16:02;22.83;;;10.52;;
84709;SDS011;75589;42.648;23.274;2024-02-26T05:18:28;23.05;;;10.55;;
84709;SDS011;75589;42.648;23.274;2024-02-26T05:20:53;20.35;;;11.60;;
84709;SDS011;75589;42.648;23.274;2024-02-26T05:23:19;21.80;;;10.15;;
84709;SDS011;75589;42.648;23.274;2024-02-26T05:25:44;20.58;;;10.90;;
84709;SDS011;75589;42.648;23.274;2024-02-26T05:28:12;21.90;;;12.48;;
84709;SDS011;75589;42.648;23.274;2024-02-26T05:30:37;23.45;;;11.07;;
84709;SDS011;75589;42.648;23.274;2024-02-26T05:33:05;26.55;;;11.82;;
84709;SDS011;75589;42.648;23.274;2024-02-26T05:35:30;28.35;;;12.85;;
84709;SDS011;75589;42.648;23.274;2024-02-26T05:37:56;26.55;;;12.60;;
84709;SDS011;75589;42.648;23.274;2024-02-26T05:40:21;29.90;;;13.70;;
84709;SDS011;75589;42.648;23.274;2024-02-26T05:42:47;26.05;;;13.85;;
84709;SDS011;75589;42.648;23.274;2024-02-26T05:45:14;26.40;;;13.98;;
84709;SDS011;75589;42.648;23.274;2024-02-26T05:47:39;29.13;;;13.48;;
84709;SDS011;75589;42.648;23.274;2024-02-26T05:50:08;30.30;;;13.68;;
84709;SDS011;75589;42.648;23.274;2024-02-26T05:52:37;27.13;;;11.73;;
84709;SDS011;75589;42.648;23.274;2024-02-26T05:55:04;21.00;;;12.30;;
84709;SDS011;75589;42.648;23.274;2024-02-26T05:59:56;24.25;;;11.15;;
84709;SDS011;75589;42.648;23.274;2024-02-26T06:02:21;24.85;;;13.57;;
84709;SDS011;75589;42.648;23.274;2024-02-26T06:04:46;24.00;;;12.85;;
84709;SDS011;75589;42.648;23.274;2024-02-26T06:07:12;21.98;;;11.90;;
84709;SDS011;75589;42.648;23.274;2024-02-26T06:09:38;25.85;;;14.15;;
84709;SDS011;75589;42.648;23.274;2024-02-26T06:12:04;24.35;;;12.25;;
84709;SDS011;75589;42.648;23.274;2024-02-26T06:14:30;20.42;;;11.60;;
84709;SDS011;75589;42.648;23.274;2024-02-26T06:16:56;20.08;;;10.45;;
84709;SDS011;75589;42.648;23.274;2024-02-26T06:19:21;20.90;;;11.88;;
84709;SDS011;75589;42.648;23.274;2024-02-26T06:21:46;23.20;;;11.15;;
84709;SDS011;75589;42.648;23.274;2024-02-26T06:24:12;19.65;;;11.25;;
84709;SDS011;75589;42.648;23.274;2024-02-26T06:26:37;21.23;;;11.40;;
84709;SDS011;75589;42.648;23.274;2024-02-26T06:29:03;25.48;;;11.10;;
84709;SDS011;75589;42.648;23.274;2024-02-26T06:31:28;24.45;;;12.65;;
84709;SDS011;75589;42.648;23.274;2024-02-26T06:33:54;25.00;;;11.48;;
84709;SDS011;75589;42.648;23.274;2024-02-26T06:38:46;22.15;;;11.35;;
84709;SDS011;75589;42.648;23.274;2024-02-26T06:41:11;22.27;;;11.15;;
84709;SDS011;75589;42.648;23.274;2024-02-26T06:43:37;34.33;;;11.38;;
84709;SDS011;75589;42.648;23.274;2024-02-26T06:46:02;25.10;;;10.98;;
84709;SDS011;75589;42.648;23.274;2024-02-26T06:48:28;26.13;;;12.73;;
84709;SDS011;75589;42.648;23.274;2024-02-26T06:50:53;22.33;;;11.45;;
84709;SDS011;75589;42.648;23.274;2024-02-26T06:53:19;21.38;;;12.75;;
84709;SDS011;75589;42.648;23.274;2024-02-26T06:55:44;24.60;;;13.32;;
84709;SDS011;75589;42.648;23.274;2024-02-26T06:58:10;25.38;;;13.65;;
84709;SDS011;75589;42.648;23.274;2024-02-26T07:00:36;27.55;;;14.27;;
84709;SDS011;75589;42.648;23.274;2024-02-26T07:03:01;28.42;;;13.32;;
84709;SDS011;75589;42.648;23.274;2024-02-26T07:05:27;27.10;;;14.38;;
84709;SDS011;75589;42.648;23.274;2024-02-26T07:07:53;28.38;;;13.50;;
84709;SDS011;75589;42.648;23.274;2024-02-26T07:10:18;28.92;;;13.52;;
84709;SDS011;75589;42.648;23.274;2024-02-26T07:12:44;25.02;;;12.82;;
84709;SDS011;75589;42.648;23.274;2024-02-26T07:15:09;23.92;;;13.23;;
84709;SDS011;75589;42.648;23.274;2024-02-26T07:17:35;23.17;;;12.05;;
84709;SDS011;75589;42.648;23.274;2024-02-26T07:20:01;26.35;;;11.90;;
84709;SDS011;75589;42.648;23.274;2024-02-26T07:22:29;22.55;;;10.20;;
84709;SDS011;75589;42.648;23.274;2024-02-26T07:24:55;24.45;;;11.80;;
84709;SDS011;75589;42.648;23.274;2024-02-26T07:27:20;21.45;;;10.93;;
84709;SDS011;75589;42.648;23.274;2024-02-26T07:29:46;26.13;;;11.50;;
84709;SDS011;75589;42.648;23.274;2024-02-26T07:32:12;23.45;;;10.63;;
84709;SDS011;75589;42.648;23.274;2024-02-26T07:34:37;20.00;;;10.57;;
84709;SDS011;75589;42.648;23.274;2024-02-26T07:37:06;24.25;;;10.15;;
84709;SDS011;75589;42.648;23.274;2024-02-26T07:39:32;24.90;;;12.30;;
84709;SDS011;75589;42.648;23.274;2024-02-26T07:41:58;18.15;;;10.98;;
84709;SDS011;75589;42.648;23.274;2024-02-26T07:44:23;20.42;;;11.18;;
84709;SDS011;75589;42.648;23.274;2024-02-26T07:46:49;16.63;;;9.90;;
84709;SDS011;75589;42.648;23.274;2024-02-26T07:49:14;14.60;;;9.13;;
84709;SDS011;75589;42.648;23.274;2024-02-26T07:51:40;21.13;;;10.98;;
84709;SDS011;75589;42.648;23.274;2024-02-26T07:54:05;18.17;;;10.93;;
84709;SDS011;75589;42.648;23.274;2024-02-26T07:56:31;18.83;;;10.43;;
84709;SDS011;75589;42.648;23.274;2024-02-26T07:58:56;21.52;;;8.88;;
84709;SDS011;75589;42.648;23.274;2024-02-26T08:01:22;14.80;;;8.93;;
84709;SDS011;75589;42.648;23.274;2024-02-26T08:03:48;20.85;;;9.73;;
84709;SDS011;75589;42.648;23.274;2024-02-26T08:06:13;15.98;;;9.38;;
84709;SDS011;75589;42.648;23.274;2024-02-26T08:08:39;16.70;;;9.80;;
84709;SDS011;75589;42.648;23.274;2024-02-26T08:11:04;24.95;;;10.18;;
84709;SDS011;75589;42.648;23.274;2024-02-26T08:13:30;18.67;;;11.68;;
84709;SDS011;75589;42.648;23.274;2024-02-26T08:15:56;16.70;;;9.55;;
84709;SDS011;75589;42.648;23.274;2024-02-26T08:18:21;20.33;;;10.30;;
84709;SDS011;75589;42.648;23.274;2024-02-26T08:20:47;20.83;;;9.23;;
84709;SDS011;75589;42.648;23.274;2024-02-26T08:23:14;18.42;;;7.75;;
84709;SDS011;75589;42.648;23.274;2024-02-26T08:25:39;19.70;;;8.13;;
84709;SDS011;75589;42.648;23.274;2024-02-26T08:28:05;17.10;;;8.73;;
84709;SDS011;75589;42.648;23.274;2024-02-26T08:30:30;16.48;;;8.05;;
84709;SDS011;75589;42.648;23.274;2024-02-26T08:32:56;18.48;;;9.82;;
84709;SDS011;75589;42.648;23.274;2024-02-26T08:35:22;24.10;;;8.85;;
84709;SDS011;75589;42.648;23.274;2024-02-26T08:37:47;17.30;;;8.30;;
84709;SDS011;75589;42.648;23.274;2024-02-26T08:40:13;13.40;;;7.53;;
84709;SDS011;75589;42.648;23.274;2024-02-26T08:45:05;14.10;;;6.68;;
84709;SDS011;75589;42.648;23.274;2024-02-26T08:47:32;29.15;;;9.90;;
84709;SDS011;75589;42.648;23.274;2024-02-26T08:49:57;13.75;;;7.30;;
84709;SDS011;75589;42.648;23.274;2024-02-26T08:52:23;14.30;;;7.78;;
84709;SDS011;75589;42.648;23.274;2024-02-26T08:54:48;14.98;;;7.03;;
84709;SDS011;75589;42.648;23.274;2024-02-26T08:59:40;13.40;;;6.45;;
84709;SDS011;75589;42.648;23.274;2024-02-26T09:02:05;12.85;;;7.05;;
84709;SDS011;75589;42.648;23.274;2024-02-26T09:04:32;14.88;;;10.40;;
84709;SDS011;75589;42.648;23.274;2024-02-26T09:06:58;19.67;;;10.18;;
84709;SDS011;75589;42.648;23.274;2024-02-26T09:09:23;22.17;;;11.13;;
84709;SDS011;75589;42.648;23.274;2024-02-26T09:11:51;19.90;;;10.25;;
84709;SDS011;75589;42.648;23.274;2024-02-26T09:14:17;26.98;;;11.13;;
84709;SDS011;75589;42.648;23.274;2024-02-26T09:16:43;13.73;;;7.15;;
84709;SDS011;75589;42.648;23.274;2024-02-26T09:19:09;16.58;;;6.93;;
84709;SDS011;75589;42.648;23.274;2024-02-26T09:21:34;13.75;;;7.65;;
84709;SDS011;75589;42.648;23.274;2024-02-26T09:24:00;31.38;;;15.02;;
84709;SDS011;75589;42.648;23.274;2024-02-26T09:26:25;32.03;;;14.50;;
84709;SDS011;75589;42.648;23.274;2024-02-26T09:28:51;32.85;;;16.23;;
84709;SDS011;75589;42.648;23.274;2024-02-26T09:31:17;14.20;;;7.25;;
84709;SDS011;75589;42.648;23.274;2024-02-26T09:33:43;12.98;;;5.53;;
84709;SDS011;75589;42.648;23.274;2024-02-26T09:36:08;8.25;;;3.90;;
84709;SDS011;75589;42.648;23.274;2024-02-26T09:38:36;6.38;;;3.83;;
84709;SDS011;75589;42.648;23.274;2024-02-26T09:41:03;4.28;;;2.67;;
84709;SDS011;75589;42.648;23.274;2024-02-26T09:43:33;13.20;;;4.72;;
84709;SDS011;75589;42.648;23.274;2024-02-26T09:46:00;8.50;;;3.72;;
84709;SDS011;75589;42.648;23.274;2024-02-26T09:48:26;8.25;;;4.57;;
84709;SDS011;75589;42.648;23.274;2024-02-26T09:50:53;6.38;;;3.35;;
84709;SDS011;75589;42.648;23.274;2024-02-26T09:53:18;6.90;;;3.30;;
84709;SDS011;75589;42.648;23.274;2024-02-26T09:55:47;7.00;;;3.33;;
84709;SDS011;75589;42.648;23.274;2024-02-26T09:58:13;5.30;;;3.15;;
84709;SDS011;75589;42.648;23.274;2024-02-26T10:00:43;6.13;;;3.80;;
84709;SDS011;75589;42.648;23.274;2024-02-26T10:03:13;12.27;;;3.40;;
84709;SDS011;75589;42.648;23.274;2024-02-26T10:05:40;7.15;;;3.15;;
84709;SDS011;75589;42.648;23.274;2024-02-26T10:08:07;6.97;;;3.13;;
84709;SDS011;75589;42.648;23.274;2024-02-26T10:10:34;5.82;;;3.88;;
84709;SDS011;75589;42.648;23.274;2024-02-26T10:13:01;5.45;;;2.63;;
84709;SDS011;75589;42.648;23.274;2024-02-26T10:15:34;8.63;;;3.10;;
84709;SDS011;75589;42.648;23.274;2024-02-26T10:18:00;8.48;;;3.58;;
84709;SDS011;75589;42.648;23.274;2024-02-26T10:20:29;5.38;;;2.55;;
84709;SDS011;75589;42.648;23.274;2024-02-26T10:22:56;3.88;;;2.90;;
84709;SDS011;75589;42.648;23.274;2024-02-26T10:25:22;4.93;;;3.00;;
84709;SDS011;75589;42.648;23.274;2024-02-26T10:27:48;8.38;;;3.55;;
84709;SDS011;75589;42.648;23.274;2024-02-26T10:30:21;14.05;;;4.13;;
84709;SDS011;75589;42.648;23.274;2024-02-26T10:32:48;6.47;;;3.80;;
84709;SDS011;75589;42.648;23.274;2024-02-26T10:35:14;4.78;;;3.03;;
84709;SDS011;75589;42.648;23.274;2024-02-26T10:37:40;4.57;;;3.20;;
84709;SDS011;75589;42.648;23.274;2024-02-26T10:42:41;5.85;;;3.90;;
84709;SDS011;75589;42.648;23.274;2024-02-26T10:45:08;6.43;;;3.05;;
84709;SDS011;75589;42.648;23.274;2024-02-26T10:47:37;6.97;;;3.42;;
84709;SDS011;75589;42.648;23.274;2024-02-26T10:50:04;5.32;;;3.30;;
84709;SDS011;75589;42.648;23.274;2024-02-26T10:52:35;4.78;;;3.40;;
84709;SDS011;75589;42.648;23.274;2024-02-26T10:55:03;5.85;;;3.22;;
84709;SDS011;75589;42.648;23.274;2024-02-26T10:57:42;10.60;;;3.70;;
84709;SDS011;75589;42.648;23.274;2024-02-26T11:00:10;6.22;;;3.40;;
84709;SDS011;75589;42.648;23.274;2024-02-26T11:02:40;4.25;;;3.63;;
84709;SDS011;75589;42.648;23.274;2024-02-26T11:07:32;6.90;;;3.85;;
84709;SDS011;75589;42.648;23.274;2024-02-26T11:09:59;7.10;;;3.33;;
84709;SDS011;75589;42.648;23.274;2024-02-26T11:12:27;4.88;;;3.17;;
84709;SDS011;75589;42.648;23.274;2024-02-26T11:14:54;4.75;;;3.47;;
84709;SDS011;75589;42.648;23.274;2024-02-26T11:17:23;5.50;;;3.55;;
84709;SDS011;75589;42.648;23.274;2024-02-26T11:19:51;4.78;;;3.13;;
84709;SDS011;75589;42.648;23.274;2024-02-26T11:22:20;4.60;;;3.97;;
84709;SDS011;75589;42.648;23.274;2024-02-26T11:24:47;3.22;;;2.85;;
84709;SDS011;75589;42.648;23.274;2024-02-26T11:27:13;6.78;;;3.88;;
84709;SDS011;75589;42.648;23.274;2024-02-26T11:29:44;5.55;;;3.55;;
84709;SDS011;75589;42.648;23.274;2024-02-26T11:32:14;4.82;;;3.40;;
84709;SDS011;75589;42.648;23.274;2024-02-26T11:34:40;4.75;;;3.60;;
84709;SDS011;75589;42.648;23.274;2024-02-26T11:37:10;4.85;;;3.25;;
84709;SDS011;75589;42.648;23.274;2024-02-26T11:39:40;4.97;;;3.10;;
84709;SDS011;75589;42.648;23.274;2024-02-26T11:42:09;5.82;;;3.83;;
84709;SDS011;75589;42.648;23.274;2024-02-26T11:44:38;5.10;;;4.00;;
84709;SDS011;75589;42.648;23.274;2024-02-26T11:49:35;4.50;;;2.97;;
84709;SDS011;75589;42.648;23.274;2024-02-26T11:52:02;6.95;;;3.60;;
84709;SDS011;75589;42.648;23.274;2024-02-26T11:54:50;9.55;;;3.55;;
84709;SDS011;75589;42.648;23.274;2024-02-26T11:57:30;5.82;;;3.47;;
84709;SDS011;75589;42.648;23.274;2024-02-26T12:00:11;7.32;;;3.58;;
84709;SDS011;75589;42.648;23.274;2024-02-26T12:05:14;6.55;;;3.28;;
84709;SDS011;75589;42.648;23.274;2024-02-26T12:07:45;8.10;;;3.30;;
84709;SDS011;75589;42.648;23.274;2024-02-26T12:10:35;3.30;;;2.90;;
84709;SDS011;75589;42.648;23.274;2024-02-26T12:13:13;3.88;;;2.55;;
84709;SDS011;75589;42.648;23.274;2024-02-26T12:18:20;6.53;;;2.97;;
84709;SDS011;75589;42.648;23.274;2024-02-26T12:20:47;4.63;;;2.20;;
84709;SDS011;75589;42.648;23.274;2024-02-26T12:23:31;7.70;;;3.33;;
84709;SDS011;75589;42.648;23.274;2024-02-26T12:28:29;5.50;;;2.50;;
84709;SDS011;75589;42.648;23.274;2024-02-26T12:30:55;5.45;;;2.60;;
84709;SDS011;75589;42.648;23.274;2024-02-26T12:35:46;5.28;;;2.50;;
84709;SDS011;75589;42.648;23.274;2024-02-26T12:38:14;7.78;;;2.58;;
84709;SDS011;75589;42.648;23.274;2024-02-26T12:40:40;6.47;;;2.92;;
84709;SDS011;75589;42.648;23.274;2024-02-26T12:45:38;6.90;;;2.90;;
84709;SDS011;75589;42.648;23.274;2024-02-26T12:48:05;5.30;;;2.58;;
84709;SDS011;75589;42.648;23.274;2024-02-26T12:50:31;3.85;;;2.33;;
84709;SDS011;75589;42.648;23.274;2024-02-26T12:55:26;5.53;;;3.15;;
84709;SDS011;75589;42.648;23.274;2024-02-26T13:00:19;4.68;;;2.63;;
84709;SDS011;75589;42.648;23.274;2024-02-26T13:02:47;4.00;;;2.75;;
84709;SDS011;75589;42.648;23.274;2024-02-26T13:05:15;4.93;;;2.97;;
84709;SDS011;75589;42.648;23.274;2024-02-26T13:07:43;3.08;;;2.67;;
84709;SDS011;75589;42.648;23.274;2024-02-26T13:10:10;4.07;;;2.42;;
84709;SDS011;75589;42.648;23.274;2024-02-26T13:12:37;5.50;;;2.30;;
84709;SDS011;75589;42.648;23.274;2024-02-26T13:15:07;6.03;;;3.08;;
84709;SDS011;75589;42.648;23.274;2024-02-26T13:17:40;3.47;;;2.33;;
84709;SDS011;75589;42.648;23.274;2024-02-26T13:22:34;3.17;;;2.10;;
84709;SDS011;75589;42.648;23.274;2024-02-26T13:25:00;3.92;;;2.13;;
84709;SDS011;75589;42.648;23.274;2024-02-26T13:27:28;3.08;;;1.88;;
84709;SDS011;75589;42.648;23.274;2024-02-26T13:32:39;5.70;;;1.90;;
84709;SDS011;75589;42.648;23.274;2024-02-26T13:35:09;3.40;;;2.08;;
84709;SDS011;75589;42.648;23.274;2024-02-26T13:37:38;5.25;;;2.55;;
84709;SDS011;75589;42.648;23.274;2024-02-26T13:40:08;4.80;;;2.88;;
84709;SDS011;75589;42.648;23.274;2024-02-26T13:42:36;3.17;;;2.00;;
84709;SDS011;75589;42.648;23.274;2024-02-26T13:45:03;10.77;;;2.60;;
84709;SDS011;75589;42.648;23.274;2024-02-26T13:47:31;6.00;;;2.28;;
84709;SDS011;75589;42.648;23.274;2024-02-26T13:49:58;7.60;;;2.10;;
84709;SDS011;75589;42.648;23.274;2024-02-26T13:54:50;5.60;;;2.80;;
84709;SDS011;75589;42.648;23.274;2024-02-26T13:57:16;7.68;;;2.80;;
84709;SDS011;75589;42.648;23.274;2024-02-26T14:02:10;8.02;;;2.30;;
84709;SDS011;75589;42.648;23.274;2024-02-26T14:04:36;4.25;;;2.33;;
84709;SDS011;75589;42.648;23.274;2024-02-26T14:07:02;5.82;;;2.17;;
84709;SDS011;75589;42.648;23.274;2024-02-26T14:11:54;4.15;;;2.10;;
84709;SDS011;75589;42.648;23.274;2024-02-26T14:16:45;3.05;;;2.55;;
84709;SDS011;75589;42.648;23.274;2024-02-26T14:21:36;5.88;;;2.58;;
84709;SDS011;75589;42.648;23.274;2024-02-26T14:26:28;7.05;;;2.53;;
84709;SDS011;75589;42.648;23.274;2024-02-26T14:31:19;4.65;;;2.03;;
84709;SDS011;75589;42.648;23.274;2024-02-26T14:36:10;8.45;;;2.03;;
84709;SDS011;75589;42.648;23.274;2024-02-26T14:41:02;5.30;;;2.08;;
84709;SDS011;75589;42.648;23.274;2024-02-26T14:45:54;3.83;;;2.10;;
84709;SDS011;75589;42.648;23.274;2024-02-26T14:48:19;3.20;;;1.98;;
84709;SDS011;75589;42.648;23.274;2024-02-26T14:53:10;2.85;;;2.05;;
84709;SDS011;75589;42.648;23.274;2024-02-26T14:58:01;4.03;;;1.90;;
84709;SDS011;75589;42.648;23.274;2024-02-26T15:02:52;4.80;;;1.67;;
84709;SDS011;75589;42.648;23.274;2024-02-26T15:05:19;10.35;;;2.50;;
84709;SDS011;75589;42.648;23.274;2024-02-26T15:07:45;2.63;;;1.83;;
84709;SDS011;75589;42.648;23.274;2024-02-26T15:10:10;2.72;;;2.13;;
84709;SDS011;75589;42.648;23.274;2024-02-26T15:12:37;1.90;;;1.65;;
84709;SDS011;75589;42.648;23.274;2024-02-26T15:15:03;4.15;;;2.17;;
84709;SDS011;75589;42.648;23.274;2024-02-26T15:19:57;7.80;;;2.67;;
84709;SDS011;75589;42.648;23.274;2024-02-26T15:22:24;8.73;;;3.63;;
84709;SDS011;75589;42.648;23.274;2024-02-26T15:24:49;9.75;;;3.17;;
84709;SDS011;75589;42.648;23.274;2024-02-26T15:27:15;6.40;;;4.32;;
84709;SDS011;75589;42.648;23.274;2024-02-26T15:29:42;8.85;;;4.28;;
84709;SDS011;75589;42.648;23.274;2024-02-26T15:32:07;6.78;;;4.05;;
84709;SDS011;75589;42.648;23.274;2024-02-26T15:34:33;10.90;;;3.85;;
84709;SDS011;75589;42.648;23.274;2024-02-26T15:36:58;7.68;;;4.25;;
84709;SDS011;75589;42.648;23.274;2024-02-26T15:39:24;5.38;;;3.45;;